Time;durP1;ratioP1;P1;durP2;ratioP2;P2;SDS_P1;SDS_P2;PMS_P1;PMS_P2;Temp;Humidity;BMP_temperature;BMP_pressure;BME280_temperature;BME280_humidity;BME280_pressure;Samples;Min_cycle;Max_cycle;Signal;HPM_P1;HPM_P2
2023/08/08 00:01:21;;;;;;;5.28;2.20;;;16.30;99.90;;;;;;4896357;29;20425;-73
2023/08/08 00:07:45;;;;;;;6.50;2.35;;;16.30;99.90;;;;;;5003677;23;20500;-73
2023/08/08 00:10:11;;;;;;;6.07;1.73;;;16.30;99.90;;;;;;4917884;29;20028;-73
2023/08/08 00:12:37;;;;;;;2.65;2.13;;;16.30;99.90;;;;;;4913247;29;20040;-73
2023/08/08 00:15:03;;;;;;;5.82;2.17;;;16.40;99.90;;;;;;4934384;29;20093;-73
2023/08/08 00:17:28;;;;;;;3.70;2.10;;;16.40;99.90;;;;;;4934793;29;20032;-73
2023/08/08 00:19:54;;;;;;;4.35;2.15;;;16.40;99.90;;;;;;4917673;29;20119;-73
2023/08/08 00:22:20;;;;;;;4.88;2.15;;;16.40;99.90;;;;;;4934433;29;20035;-73
2023/08/08 00:24:46;;;;;;;3.05;1.80;;;16.40;99.90;;;;;;4934416;29;20163;-73
2023/08/08 00:27:12;;;;;;;4.32;1.75;;;16.40;99.90;;;;;;4917307;29;20118;-73
2023/08/08 00:29:37;;;;;;;2.28;1.75;;;16.50;99.90;;;;;;4934556;29;20383;-73
2023/08/08 00:32:03;;;;;;;2.85;2.00;;;16.50;99.90;;;;;;4934469;29;20106;-73
2023/08/08 00:34:29;;;;;;;5.75;2.22;;;16.50;99.90;;;;;;4917364;29;20122;-73
2023/08/08 00:36:55;;;;;;;2.95;2.00;;;16.50;99.90;;;;;;4934146;29;20446;-75
2023/08/08 00:39:21;;;;;;;4.05;2.38;;;16.50;99.90;;;;;;4933962;29;20043;-72
2023/08/08 00:41:46;;;;;;;2.85;1.73;;;16.50;99.90;;;;;;4916437;29;20411;-72
2023/08/08 00:44:14;;;;;;;3.85;2.05;;;16.50;99.90;;;;;;4909803;29;20095;-73
2023/08/08 00:46:40;;;;;;;1.70;1.60;;;16.50;99.90;;;;;;4917029;29;20171;-73
2023/08/08 00:49:05;;;;;;;4.95;2.03;;;16.50;99.90;;;;;;4917516;29;20066;-73
2023/08/08 00:51:32;;;;;;;3.92;2.15;;;16.50;99.90;;;;;;4901417;29;20048;-73
2023/08/08 00:53:58;;;;;;;6.10;2.08;;;16.40;99.90;;;;;;4933966;29;20042;-74
2023/08/08 00:56:25;;;;;;;6.03;2.60;;;16.50;99.90;;;;;;4934273;29;20058;-74
2023/08/08 00:58:51;;;;;;;3.63;2.00;;;16.50;99.90;;;;;;4934051;29;20563;-73
2023/08/08 01:01:18;;;;;;;4.13;2.42;;;16.40;99.90;;;;;;4934134;29;20110;-73
2023/08/08 01:03:44;;;;;;;5.20;2.20;;;16.40;99.90;;;;;;4934056;29;20507;-73
2023/08/08 01:06:36;;;;;;;4.18;2.50;;;16.50;99.90;;;;;;4916356;29;20044;-72
2023/08/08 01:09:23;;;;;;;3.65;2.38;;;16.50;99.90;;;;;;4916445;29;20067;-74
2023/08/08 01:11:51;;;;;;;2.78;2.10;;;16.50;99.90;;;;;;4934037;29;20031;-74
2023/08/08 01:14:18;;;;;;;3.80;2.50;;;16.40;99.90;;;;;;4916835;29;20134;-74
2023/08/08 01:16:45;;;;;;;4.43;2.17;;;16.40;99.90;;;;;;4916863;29;20487;-73
2023/08/08 01:19:18;;;;;;;4.38;2.13;;;16.40;99.90;;;;;;4933707;29;20038;-73
2023/08/08 01:21:48;;;;;;;3.05;2.10;;;16.40;99.90;;;;;;4933999;29;20480;-72
2023/08/08 01:24:23;;;;;;;6.03;2.20;;;16.40;99.90;;;;;;4916651;29;20361;-73
2023/08/08 01:26:49;;;;;;;4.15;2.10;;;16.50;99.90;;;;;;4916642;29;20043;-74
2023/08/08 01:29:15;;;;;;;3.35;2.50;;;16.50;99.90;;;;;;4933719;29;20055;-73
2023/08/08 01:31:41;;;;;;;5.05;2.70;;;16.50;99.90;;;;;;4933823;29;20522;-72
2023/08/08 01:34:07;;;;;;;3.60;2.42;;;16.50;99.90;;;;;;4934114;29;20095;-73
2023/08/08 01:36:55;;;;;;;4.50;2.70;;;16.50;99.90;;;;;;4916426;29;20035;-73
2023/08/08 01:39:26;;;;;;;4.53;2.20;;;16.50;99.90;;;;;;4916863;29;20091;-73
2023/08/08 01:41:54;;;;;;;3.83;2.15;;;16.40;99.90;;;;;;4916383;29;20066;-73
2023/08/08 01:44:21;;;;;;;4.10;2.38;;;16.40;99.90;;;;;;4916372;29;20078;-73
2023/08/08 01:46:47;;;;;;;8.32;2.92;;;16.40;99.90;;;;;;4933631;29;20067;-73
2023/08/08 01:49:13;;;;;;;4.93;2.28;;;16.40;99.90;;;;;;4916470;29;20063;-73
2023/08/08 01:51:39;;;;;;;4.38;2.08;;;16.40;99.90;;;;;;4917936;29;20031;-73
2023/08/08 01:54:07;;;;;;;3.00;2.00;;;16.40;99.90;;;;;;4937487;29;20027;-74
2023/08/08 01:56:33;;;;;;;3.28;2.00;;;16.40;99.90;;;;;;4937757;29;20032;-73
2023/08/08 01:59:00;;;;;;;3.03;1.90;;;16.40;99.90;;;;;;4920092;29;20122;-73
2023/08/08 02:01:26;;;;;;;4.00;2.42;;;16.40;99.90;;;;;;4920311;29;20119;-72
2023/08/08 02:03:52;;;;;;;3.97;2.08;;;16.50;99.90;;;;;;4919953;29;20097;-73
2023/08/08 02:06:18;;;;;;;2.97;1.52;;;16.40;99.90;;;;;;4937136;29;20099;-73
2023/08/08 02:08:44;;;;;;;1.95;1.75;;;16.50;99.90;;;;;;4919832;29;20451;-73
2023/08/08 02:11:10;;;;;;;2.50;1.70;;;16.50;99.90;;;;;;4919493;29;20035;-73
2023/08/08 02:13:35;;;;;;;8.18;2.47;;;16.50;99.90;;;;;;4920194;29;20023;-72
2023/08/08 02:16:01;;;;;;;2.88;1.80;;;16.50;99.90;;;;;;4920363;29;20106;-73
2023/08/08 02:18:27;;;;;;;3.45;1.50;;;16.60;99.90;;;;;;4937441;29;20054;-73
2023/08/08 02:20:53;;;;;;;3.00;1.60;;;16.50;99.90;;;;;;4919855;29;20046;-73
2023/08/08 02:23:19;;;;;;;2.65;1.88;;;16.60;99.90;;;;;;4937721;29;20038;-73
2023/08/08 02:25:44;;;;;;;2.35;1.60;;;16.60;99.90;;;;;;4904673;29;20487;-73
2023/08/08 02:28:10;;;;;;;2.05;1.33;;;16.60;99.90;;;;;;4937305;29;20064;-73
2023/08/08 02:30:37;;;;;;;1.30;1.15;;;16.70;99.90;;;;;;4920272;29;20032;-73
2023/08/08 02:33:04;;;;;;;1.52;1.15;;;16.60;99.90;;;;;;4937639;29;20435;-73
2023/08/08 02:35:30;;;;;;;2.00;1.40;;;16.70;99.90;;;;;;4937317;29;20015;-73
2023/08/08 02:37:56;;;;;;;2.65;1.60;;;16.80;99.90;;;;;;4936960;29;20496;-74
2023/08/08 02:40:23;;;;;;;2.78;1.33;;;16.90;99.90;;;;;;4920152;29;20042;-73
2023/08/08 02:42:50;;;;;;;3.28;1.48;;;16.90;99.90;;;;;;4920161;29;20023;-73
2023/08/08 02:45:16;;;;;;;4.18;1.33;;;17.00;99.90;;;;;;4920158;29;20051;-73
2023/08/08 02:47:42;;;;;;;0.85;0.85;;;17.00;99.90;;;;;;4920038;29;20040;-73
2023/08/08 02:50:08;;;;;;;4.85;1.20;;;17.00;99.90;;;;;;4936977;29;20498;-72
2023/08/08 02:52:34;;;;;;;1.80;1.38;;;16.90;99.90;;;;;;4919794;29;20032;-74
2023/08/08 02:54:59;;;;;;;2.97;1.40;;;17.00;99.90;;;;;;4919868;29;20038;-73
2023/08/08 02:57:25;;;;;;;3.10;1.40;;;17.00;99.90;;;;;;4919951;29;20023;-73
2023/08/08 02:59:54;;;;;;;2.45;1.58;;;17.00;99.90;;;;;;4919190;29;20396;-73
2023/08/08 03:02:19;;;;;;;2.42;1.42;;;17.00;99.90;;;;;;4919487;29;20911;-74
2023/08/08 03:04:46;;;;;;;1.67;1.25;;;17.10;99.90;;;;;;4918936;29;20116;-74
2023/08/08 03:07:12;;;;;;;3.50;1.80;;;17.00;99.90;;;;;;4919572;29;20036;-72
2023/08/08 03:09:38;;;;;;;4.63;1.50;;;17.00;99.90;;;;;;4936474;29;20047;-73
2023/08/08 03:12:04;;;;;;;2.92;1.75;;;17.00;99.90;;;;;;4935553;29;20071;-73
2023/08/08 03:14:33;;;;;;;1.30;1.20;;;16.90;99.90;;;;;;4919377;29;20097;-73
2023/08/08 03:17:00;;;;;;;6.40;1.65;;;16.70;99.90;;;;;;4919284;29;20383;-72
2023/08/08 03:19:26;;;;;;;3.60;1.50;;;16.80;99.90;;;;;;4936366;29;20020;-73
2023/08/08 03:21:52;;;;;;;5.97;1.45;;;16.80;99.90;;;;;;4919293;29;20028;-73
2023/08/08 03:24:18;;;;;;;4.75;1.50;;;16.80;99.90;;;;;;4919216;29;20028;-73
2023/08/08 03:26:44;;;;;;;2.05;1.55;;;16.80;99.90;;;;;;4919158;29;20043;-73
2023/08/08 03:29:12;;;;;;;3.28;1.60;;;16.90;99.90;;;;;;4926470;29;20032;-71
2023/08/08 03:31:42;;;;;;;4.70;1.58;;;16.90;99.90;;;;;;4923100;29;20114;-72
2023/08/08 03:34:08;;;;;;;5.30;1.40;;;16.90;99.90;;;;;;4936569;29;20160;-72
2023/08/08 03:36:34;;;;;;;3.63;1.80;;;16.80;99.90;;;;;;4918303;29;20039;-71
2023/08/08 03:39:01;;;;;;;3.47;1.63;;;16.80;99.90;;;;;;4918954;29;20383;-71
2023/08/08 03:41:27;;;;;;;2.38;1.85;;;16.80;99.90;;;;;;4920764;29;20034;-72
2023/08/08 03:43:52;;;;;;;3.95;1.73;;;16.80;99.90;;;;;;4947291;29;20032;-72
2023/08/08 03:46:18;;;;;;;2.30;1.88;;;16.80;99.90;;;;;;4935178;29;20205;-72
2023/08/08 03:48:44;;;;;;;3.55;2.00;;;17.10;99.90;;;;;;4935883;29;20471;-73
2023/08/08 03:51:10;;;;;;;6.35;2.05;;;17.30;99.90;;;;;;4936350;29;20467;-73
2023/08/08 03:53:37;;;;;;;2.47;1.80;;;17.20;99.90;;;;;;4935559;29;20034;-72
2023/08/08 03:56:03;;;;;;;5.07;1.88;;;17.20;99.90;;;;;;4928131;29;20039;-72
2023/08/08 03:58:30;;;;;;;4.03;2.20;;;17.20;99.90;;;;;;4925127;29;20536;-73
2023/08/08 04:00:56;;;;;;;6.20;2.17;;;17.90;99.90;;;;;;4945758;29;20040;-73
2023/08/08 04:03:22;;;;;;;4.43;1.60;;;18.20;99.90;;;;;;4935316;29;20424;-74
2023/08/08 04:05:48;;;;;;;2.58;1.33;;;18.00;99.90;;;;;;4918541;29;20102;-73
2023/08/08 04:08:17;;;;;;;1.92;1.42;;;17.80;99.90;;;;;;4935141;29;20127;-73
2023/08/08 04:10:46;;;;;;;1.65;1.45;;;17.70;99.90;;;;;;4918862;29;20086;-73
2023/08/08 04:13:12;;;;;;;5.18;1.55;;;17.60;99.90;;;;;;4915240;29;20040;-73
2023/08/08 04:15:38;;;;;;;5.80;1.75;;;17.60;99.90;;;;;;4934947;29;20059;-74
2023/08/08 04:18:08;;;;;;;3.38;1.70;;;17.60;99.90;;;;;;4918619;29;20545;-73
2023/08/08 04:20:34;;;;;;;6.15;1.60;;;17.50;99.90;;;;;;4935325;29;20497;-74
2023/08/08 04:23:00;;;;;;;5.65;1.95;;;17.60;99.90;;;;;;4935500;29;20095;-74
2023/08/08 04:25:28;;;;;;;3.95;1.70;;;17.60;99.90;;;;;;4934740;29;20052;-73
2023/08/08 04:27:54;;;;;;;3.70;1.40;;;17.60;99.90;;;;;;4935615;29;20130;-74
2023/08/08 04:30:19;;;;;;;2.53;1.63;;;17.60;99.90;;;;;;4935133;29;20115;-74
2023/08/08 04:32:45;;;;;;;3.30;1.92;;;17.60;99.90;;;;;;4935448;29;20110;-74
2023/08/08 04:35:11;;;;;;;2.92;1.50;;;17.60;99.90;;;;;;4934835;29;20103;-73
2023/08/08 04:37:37;;;;;;;7.53;2.00;;;17.50;99.90;;;;;;4936614;29;20141;-73
2023/08/08 04:40:03;;;;;;;11.50;2.17;;;17.60;99.90;;;;;;4917658;29;20028;-74
2023/08/08 04:42:29;;;;;;;4.40;2.25;;;17.60;99.90;;;;;;4935033;29;20028;-73
2023/08/08 04:44:55;;;;;;;9.68;4.10;;;17.60;99.90;;;;;;4935206;29;20031;-73
2023/08/08 04:47:21;;;;;;;5.65;3.17;;;17.60;99.90;;;;;;4946734;29;20031;-73
2023/08/08 04:49:47;;;;;;;9.48;4.18;;;17.60;99.90;;;;;;4935936;29;20023;-73
2023/08/08 04:52:13;;;;;;;11.55;3.97;;;17.70;99.90;;;;;;4934939;29;20170;-73
2023/08/08 04:54:38;;;;;;;9.13;4.50;;;17.70;99.90;;;;;;4934747;29;20531;-74
2023/08/08 04:57:04;;;;;;;12.70;5.53;;;17.70;99.90;;;;;;4934932;29;20435;-73
2023/08/08 04:59:30;;;;;;;10.10;4.68;;;17.80;99.90;;;;;;4934906;29;20020;-74
2023/08/08 05:01:56;;;;;;;11.82;4.78;;;17.80;99.90;;;;;;4934680;29;20058;-73
2023/08/08 05:04:22;;;;;;;11.30;5.20;;;17.90;99.90;;;;;;4934623;29;20020;-74
2023/08/08 05:06:48;;;;;;;9.63;5.03;;;17.90;99.90;;;;;;4934753;29;20477;-73
2023/08/08 05:09:13;;;;;;;10.85;4.50;;;17.90;99.90;;;;;;4934622;29;20055;-73
2023/08/08 05:11:39;;;;;;;12.10;5.00;;;17.90;99.90;;;;;;4921629;29;20144;-73
2023/08/08 05:14:05;;;;;;;10.70;5.60;;;17.90;99.90;;;;;;4934244;29;20074;-74
2023/08/08 05:16:31;;;;;;;8.90;4.60;;;18.00;99.90;;;;;;4934566;29;20106;-73
2023/08/08 05:18:56;;;;;;;9.90;4.30;;;17.90;99.90;;;;;;4934089;29;20443;-74
2023/08/08 05:21:22;;;;;;;7.13;3.88;;;18.00;99.90;;;;;;4924534;29;20417;-73
2023/08/08 05:23:48;;;;;;;10.30;3.72;;;18.10;99.90;;;;;;4928033;29;20527;-73
2023/08/08 05:26:15;;;;;;;6.47;1.85;;;18.30;99.90;;;;;;4923954;29;20408;-73
2023/08/08 05:28:41;;;;;;;3.47;1.63;;;18.20;99.90;;;;;;4917551;29;20520;-74
2023/08/08 05:31:07;;;;;;;4.28;1.58;;;18.30;99.90;;;;;;4918178;29;20021;-73
2023/08/08 05:33:33;;;;;;;3.67;1.65;;;18.40;99.90;;;;;;4920934;29;20024;-73
2023/08/08 05:35:59;;;;;;;5.07;1.80;;;18.50;99.90;;;;;;4931244;29;20263;-73
2023/08/08 05:38:24;;;;;;;4.90;1.60;;;18.70;99.90;;;;;;4937083;29;20035;-73
2023/08/08 05:40:50;;;;;;;4.38;1.70;;;18.90;99.90;;;;;;4937215;29;20031;-73
2023/08/08 05:43:18;;;;;;;7.85;2.03;;;19.10;99.90;;;;;;4921153;29;20534;-74
2023/08/08 05:45:44;;;;;;;2.53;1.90;;;19.30;99.90;;;;;;4937743;29;20483;-74
2023/08/08 05:48:12;;;;;;;2.47;1.40;;;19.40;99.90;;;;;;4937412;29;20038;-73
2023/08/08 05:50:41;;;;;;;5.40;1.52;;;19.70;99.90;;;;;;4945712;29;20031;-73
2023/08/08 05:53:07;;;;;;;3.08;1.58;;;20.00;99.90;;;;;;4958390;29;20566;-73
2023/08/08 05:55:33;;;;;;;2.10;1.20;;;20.30;99.90;;;;;;4940859;29;20444;-74
2023/08/08 05:57:59;;;;;;;1.60;1.35;;;20.50;97.10;;;;;;4939140;29;20036;-74
2023/08/08 06:00:25;;;;;;;1.20;1.02;;;20.60;97.30;;;;;;4938546;29;20028;-74
2023/08/08 06:02:54;;;;;;;1.75;1.05;;;20.60;94.90;;;;;;4939050;29;20514;-74
2023/08/08 06:05:23;;;;;;;1.77;0.75;;;20.90;93.20;;;;;;4921416;29;20035;-74
2023/08/08 06:07:49;;;;;;;3.50;1.20;;;20.80;92.50;;;;;;4921471;29;20055;-74
2023/08/08 06:10:15;;;;;;;1.25;0.85;;;21.00;93.20;;;;;;4945609;29;20043;-74
2023/08/08 06:12:41;;;;;;;1.75;0.88;;;21.10;92.70;;;;;;4938716;29;20419;-73
2023/08/08 06:15:08;;;;;;;0.70;0.70;;;21.30;91.70;;;;;;4938949;29;20024;-73
2023/08/08 06:17:34;;;;;;;1.65;1.08;;;21.30;91.40;;;;;;4938692;29;20020;-74
2023/08/08 06:20:00;;;;;;;3.20;1.00;;;21.30;91.50;;;;;;4938036;29;20354;-74
2023/08/08 06:22:25;;;;;;;2.92;1.20;;;21.30;92.70;;;;;;4938772;29;20040;-74
2023/08/08 06:24:57;;;;;;;1.48;1.00;;;21.50;90.90;;;;;;4938231;29;20044;-74
2023/08/08 06:27:23;;;;;;;4.53;1.15;;;21.60;91.60;;;;;;4938612;29;20099;-73
2023/08/08 06:29:49;;;;;;;2.33;1.20;;;21.70;90.00;;;;;;4911911;29;20032;-74
2023/08/08 06:32:15;;;;;;;4.78;1.35;;;21.60;91.10;;;;;;4924086;29;20036;-73
2023/08/08 06:34:41;;;;;;;5.05;1.33;;;21.80;89.90;;;;;;4932576;29;20128;-73
2023/08/08 06:37:07;;;;;;;1.17;0.85;;;22.00;91.10;;;;;;4950750;29;20490;-75
2023/08/08 06:39:33;;;;;;;1.48;0.75;;;21.90;88.90;;;;;;4937848;29;20036;-73
2023/08/08 06:41:59;;;;;;;2.15;1.02;;;22.00;87.20;;;;;;4937996;29;20057;-73
2023/08/08 06:44:42;;;;;;;1.60;0.90;;;21.70;87.90;;;;;;4918382;29;20372;-73
2023/08/08 06:47:09;;;;;;;1.13;0.80;;;21.70;86.90;;;;;;4933689;29;20600;-73
2023/08/08 06:49:34;;;;;;;1.88;1.05;;;21.80;88.70;;;;;;4918407;29;20073;-73
2023/08/08 06:52:00;;;;;;;1.02;0.82;;;21.70;86.60;;;;;;4927280;29;20492;-73
2023/08/08 06:54:28;;;;;;;1.85;1.15;;;21.90;87.70;;;;;;4937013;29;20510;-75
2023/08/08 06:56:56;;;;;;;6.88;1.35;;;21.90;88.60;;;;;;4936737;29;20051;-73
2023/08/08 06:59:22;;;;;;;1.58;1.00;;;22.10;82.60;;;;;;4936592;29;20028;-73
2023/08/08 07:01:49;;;;;;;1.88;1.10;;;22.30;83.10;;;;;;4936906;29;20027;-73
2023/08/08 07:04:14;;;;;;;1.45;1.00;;;22.10;80.70;;;;;;4936727;29;20111;-74
2023/08/08 07:06:42;;;;;;;2.22;1.17;;;22.10;84.30;;;;;;4936712;29;20122;-73
2023/08/08 07:09:10;;;;;;;2.72;1.10;;;22.00;81.70;;;;;;4936322;29;20554;-73
2023/08/08 07:11:37;;;;;;;1.45;1.17;;;21.90;81.10;;;;;;4936637;29;20028;-74
2023/08/08 07:14:03;;;;;;;2.40;0.88;;;22.00;81.70;;;;;;4934732;29;20057;-73
2023/08/08 07:16:28;;;;;;;1.27;1.10;;;21.50;82.80;;;;;;4936550;29;20487;-73
2023/08/08 07:18:54;;;;;;;2.03;1.25;;;21.70;82.40;;;;;;4936469;29;20034;-73
2023/08/08 07:21:20;;;;;;;1.75;0.88;;;21.90;84.70;;;;;;4936522;29;20031;-73
2023/08/08 07:23:46;;;;;;;2.20;1.00;;;22.30;80.80;;;;;;4936553;29;20360;-73
2023/08/08 07:26:13;;;;;;;2.22;1.23;;;;;;;;;;4936066;29;20051;-73
2023/08/08 07:28:38;;;;;;;1.30;0.80;;;22.50;81.50;;;;;;4934792;29;20028;-73
2023/08/08 07:31:04;;;;;;;2.15;1.13;;;22.70;80.70;;;;;;4916668;29;20035;-73
2023/08/08 07:33:31;;;;;;;2.22;1.17;;;22.40;81.30;;;;;;4917403;29;20043;-73
2023/08/08 07:35:57;;;;;;;2.83;0.88;;;22.80;80.60;;;;;;4917245;29;20079;-74
2023/08/08 07:38:22;;;;;;;2.25;1.20;;;22.30;80.30;;;;;;4917251;29;20028;-74
2023/08/08 07:40:49;;;;;;;2.15;1.13;;;22.10;78.80;;;;;;4917120;29;20036;-74
2023/08/08 07:43:14;;;;;;;1.48;1.10;;;22.50;79.80;;;;;;4917182;29;20031;-73
2023/08/08 07:45:42;;;;;;;0.93;0.70;;;22.70;81.10;;;;;;4916746;29;20048;-73
2023/08/08 07:48:08;;;;;;;2.15;0.98;;;23.00;78.70;;;;;;4916951;29;20024;-73
2023/08/08 07:50:34;;;;;;;1.25;0.93;;;23.10;77.00;;;;;;4916824;29;20043;-74
2023/08/08 07:52:59;;;;;;;1.92;1.00;;;22.70;79.10;;;;;;4916826;29;20039;-74
2023/08/08 07:55:25;;;;;;;1.38;0.75;;;22.30;77.60;;;;;;4916449;29;20129;-74
2023/08/08 07:57:51;;;;;;;1.25;1.00;;;21.80;78.10;;;;;;4916418;29;20056;-74
2023/08/08 08:00:18;;;;;;;0.80;0.70;;;21.60;79.40;;;;;;4916623;29;20069;-73
2023/08/08 08:02:45;;;;;;;3.13;1.10;;;21.60;79.60;;;;;;4922422;29;20392;-73
2023/08/08 08:05:12;;;;;;;2.22;0.98;;;22.10;80.20;;;;;;4934070;29;20075;-73
2023/08/08 08:07:38;;;;;;;1.92;0.90;;;22.20;81.30;;;;;;4935365;29;20055;-73
2023/08/08 08:10:06;;;;;;;1.13;0.88;;;22.20;77.40;;;;;;4935733;29;20380;-73
2023/08/08 08:12:32;;;;;;;1.27;0.82;;;22.00;78.20;;;;;;4935407;29;20035;-74
2023/08/08 08:14:59;;;;;;;4.85;0.90;;;21.90;78.70;;;;;;4935375;29;20464;-74
2023/08/08 08:17:24;;;;;;;2.30;0.65;;;21.60;78.30;;;;;;4935412;29;20526;-73
2023/08/08 08:19:51;;;;;;;1.58;0.90;;;21.70;80.10;;;;;;4935484;29;20106;-74
2023/08/08 08:22:17;;;;;;;1.95;1.00;;;22.00;81.10;;;;;;4935332;29;20035;-74
2023/08/08 08:24:43;;;;;;;1.90;1.25;;;22.40;78.40;;;;;;4935288;29;20542;-74
2023/08/08 08:27:09;;;;;;;1.58;0.98;;;22.40;78.00;;;;;;4935155;29;20127;-74
2023/08/08 08:29:35;;;;;;;1.70;0.85;;;22.50;79.60;;;;;;4923249;29;20479;-73
2023/08/08 08:32:01;;;;;;;1.40;0.50;;;22.80;76.90;;;;;;4916238;29;20170;-75
2023/08/08 08:34:27;;;;;;;1.83;1.00;;;22.80;80.50;;;;;;4941005;29;20027;-74
2023/08/08 08:36:52;;;;;;;2.22;1.23;;;22.60;78.60;;;;;;4922838;29;20491;-74
2023/08/08 08:39:19;;;;;;;1.60;0.85;;;22.40;77.10;;;;;;4922210;29;20032;-74
2023/08/08 08:41:49;;;;;;;1.58;1.00;;;22.10;78.10;;;;;;4934789;29;21376;-74
2023/08/08 08:44:17;;;;;;;1.38;0.90;;;22.10;77.60;;;;;;4908135;29;20079;-74
2023/08/08 08:46:45;;;;;;;1.52;0.63;;;22.40;78.00;;;;;;4923576;29;20075;-74
2023/08/08 08:49:11;;;;;;;1.75;1.05;;;22.70;77.50;;;;;;4934287;29;20071;-74
2023/08/08 08:51:38;;;;;;;1.58;0.60;;;22.80;78.00;;;;;;4917740;29;20059;-74
2023/08/08 08:54:05;;;;;;;6.10;1.25;;;22.90;77.40;;;;;;4935090;29;20035;-74
2023/08/08 08:56:32;;;;;;;1.80;1.00;;;23.30;81.40;;;;;;4934635;29;20028;-74
2023/08/08 08:58:59;;;;;;;1.02;0.82;;;23.30;78.60;;;;;;4934803;29;20034;-74
2023/08/08 09:01:27;;;;;;;2.53;0.65;;;23.40;79.00;;;;;;4933906;29;20095;-74
2023/08/08 09:03:53;;;;;;;1.20;0.60;;;23.40;75.50;;;;;;4934874;29;20050;-74
2023/08/08 09:06:20;;;;;;;4.57;1.20;;;23.20;74.90;;;;;;4934832;29;20059;-73
2023/08/08 09:08:47;;;;;;;3.05;0.93;;;23.30;73.70;;;;;;4934385;29;20524;-74
2023/08/08 09:11:13;;;;;;;1.48;0.90;;;23.60;75.70;;;;;;4934760;29;20043;-73
2023/08/08 09:13:40;;;;;;;3.42;1.10;;;23.80;76.10;;;;;;4934607;29;20099;-74
2023/08/08 09:16:07;;;;;;;3.42;0.73;;;23.90;78.70;;;;;;4934601;29;20032;-73
2023/08/08 09:18:33;;;;;;;1.33;0.98;;;23.60;74.10;;;;;;4917485;29;20035;-74
2023/08/08 09:20:59;;;;;;;2.25;0.82;;;23.40;76.30;;;;;;4934867;29;20039;-74
2023/08/08 09:23:25;;;;;;;2.50;0.80;;;23.30;77.70;;;;;;4934511;29;20027;-74
2023/08/08 09:25:51;;;;;;;1.92;1.02;;;23.20;77.60;;;;;;4934552;29;20494;-74
2023/08/08 09:28:17;;;;;;;1.30;0.80;;;23.30;74.70;;;;;;4934588;29;20032;-74
2023/08/08 09:30:44;;;;;;;2.67;1.10;;;23.40;78.00;;;;;;4934480;29;20024;-73
2023/08/08 09:33:11;;;;;;;1.20;0.90;;;23.20;78.10;;;;;;4934494;29;20468;-74
2023/08/08 09:35:40;;;;;;;1.65;0.98;;;23.30;75.10;;;;;;4934313;29;20055;-73
2023/08/08 09:38:07;;;;;;;1.35;0.90;;;23.50;78.20;;;;;;4934632;29;20149;-74
2023/08/08 09:40:33;;;;;;;1.60;0.98;;;23.60;78.60;;;;;;4934341;29;20139;-74
2023/08/08 09:42:59;;;;;;;2.17;1.00;;;23.60;74.50;;;;;;4934659;29;20028;-74
2023/08/08 09:45:25;;;;;;;2.47;0.77;;;24.00;75.80;;;;;;4934052;29;20053;-74
2023/08/08 09:47:54;;;;;;;3.00;1.00;;;23.70;73.70;;;;;;4917712;29;20030;-73
2023/08/08 09:50:20;;;;;;;1.77;0.90;;;23.40;74.80;;;;;;4934510;29;20036;-74
2023/08/08 09:52:47;;;;;;;3.78;1.02;;;22.70;76.20;;;;;;4934285;29;20079;-74
2023/08/08 09:55:14;;;;;;;1.30;0.90;;;22.60;75.30;;;;;;4934135;29;20020;-74
2023/08/08 09:57:41;;;;;;;1.55;0.70;;;23.00;72.80;;;;;;4934306;29;20468;-74
2023/08/08 10:00:15;;;;;;;5.13;0.98;;;23.50;74.00;;;;;;4934334;29;20039;-73
2023/08/08 10:02:45;;;;;;;5.90;0.98;;;23.80;74.20;;;;;;4934008;29;20118;-74
2023/08/08 10:05:15;;;;;;;1.15;0.82;;;23.70;72.20;;;;;;4934066;29;20040;-74
2023/08/08 10:07:41;;;;;;;3.25;0.85;;;23.70;73.80;;;;;;4934288;29;20101;-73
2023/08/08 10:10:09;;;;;;;1.92;1.05;;;23.30;74.50;;;;;;4934007;29;20032;-74
2023/08/08 10:12:41;;;;;;;3.13;1.38;;;22.90;74.20;;;;;;4927153;29;20036;-74
2023/08/08 10:15:07;;;;;;;;;;;22.80;75.10;;;;;;4918964;29;20123;-74
2023/08/08 10:17:38;;;;;;;1.88;0.95;;;23.10;75.30;;;;;;4934091;29;20372;-73
2023/08/08 10:20:11;;;;;;;3.00;1.25;;;23.40;75.80;;;;;;4937661;29;20032;-74
2023/08/08 10:22:47;;;;;;;2.45;0.90;;;23.60;72.10;;;;;;4921790;29;20111;-73
2023/08/08 10:25:22;;;;;;;1.67;1.20;;;24.00;72.90;;;;;;4938602;29;20070;-73
2023/08/08 10:27:48;;;;;;;5.30;1.05;;;24.10;72.70;;;;;;4926985;29;20023;-73
2023/08/08 10:30:15;;;;;;;2.33;0.77;;;23.60;74.40;;;;;;4957902;29;20023;-73
2023/08/08 10:32:43;;;;;;;2.80;1.00;;;23.50;73.80;;;;;;4948954;29;20488;-73
2023/08/08 10:35:11;;;;;;;1.08;0.80;;;23.40;74.70;;;;;;4921628;29;20066;-73
2023/08/08 10:37:37;;;;;;;4.07;1.30;;;23.40;75.60;;;;;;4938388;29;20027;-74
2023/08/08 10:40:05;;;;;;;2.47;1.35;;;23.70;76.70;;;;;;4938274;29;20069;-74
2023/08/08 10:42:32;;;;;;;1.80;1.20;;;23.70;72.50;;;;;;4938175;29;20035;-74
2023/08/08 10:44:59;;;;;;;1.35;0.90;;;23.70;75.00;;;;;;4938243;29;20035;-74
2023/08/08 10:47:31;;;;;;;1.52;1.05;;;24.20;74.60;;;;;;4937728;29;20023;-74
2023/08/08 10:50:03;;;;;;;4.20;1.00;;;24.20;71.80;;;;;;4938356;29;20038;-74
2023/08/08 10:52:30;;;;;;;1.67;1.05;;;23.80;72.40;;;;;;4938210;29;20083;-74
2023/08/08 10:54:56;;;;;;;3.28;0.90;;;23.40;72.20;;;;;;4937899;29;20420;-74
2023/08/08 10:57:27;;;;;;;4.65;0.88;;;23.00;74.80;;;;;;4905334;29;20346;-73
2023/08/08 10:59:54;;;;;;;4.38;1.20;;;22.90;74.30;;;;;;4918974;29;20075;-74
2023/08/08 11:02:21;;;;;;;1.63;0.85;;;23.20;75.70;;;;;;4914378;29;20036;-75
2023/08/08 11:04:49;;;;;;;3.10;1.23;;;23.50;72.20;;;;;;4928178;29;20388;-73
2023/08/08 11:07:15;;;;;;;1.73;1.17;;;23.50;73.00;;;;;;4936990;29;20168;-73
2023/08/08 11:09:43;;;;;;;3.35;1.00;;;23.80;72.10;;;;;;4937027;29;20072;-74
2023/08/08 11:12:15;;;;;;;2.30;0.82;;;24.00;69.90;;;;;;4937433;29;20031;-73
2023/08/08 11:14:41;;;;;;;2.13;0.98;;;24.10;72.70;;;;;;4937131;29;20539;-74
2023/08/08 11:17:07;;;;;;;3.08;1.20;;;24.30;72.20;;;;;;4935635;29;20032;-74
2023/08/08 11:19:39;;;;;;;3.67;1.10;;;24.70;74.10;;;;;;4936320;29;20123;-74
2023/08/08 11:22:11;;;;;;;2.55;1.23;;;24.70;70.10;;;;;;4937708;29;20071;-74
2023/08/08 11:24:37;;;;;;;3.05;1.00;;;24.60;69.20;;;;;;4935705;29;20066;-74
2023/08/08 11:27:04;;;;;;;1.52;0.98;;;24.60;74.30;;;;;;4937219;29;20500;-73
2023/08/08 11:29:30;;;;;;;2.45;1.20;;;24.40;72.50;;;;;;4933894;29;20156;-73
2023/08/08 11:32:02;;;;;;;1.77;0.93;;;24.40;70.50;;;;;;4920533;29;20051;-73
2023/08/08 11:34:35;;;;;;;2.83;0.85;;;24.40;71.30;;;;;;4937454;29;20075;-74
2023/08/08 11:37:00;;;;;;;;;;;24.40;68.80;;;;;;4932430;29;20027;-73
2023/08/08 11:39:28;;;;;;;4.85;1.15;;;24.50;73.70;;;;;;4937348;29;20291;-74
2023/08/08 11:41:55;;;;;;;2.30;1.17;;;24.50;68.10;;;;;;4921630;29;20552;-72
2023/08/08 11:44:21;;;;;;;2.22;1.10;;;24.60;69.20;;;;;;4918089;29;20388;-73
2023/08/08 11:46:48;;;;;;;2.22;0.95;;;24.60;71.90;;;;;;4930199;29;20047;-74
2023/08/08 11:49:16;;;;;;;1.60;1.08;;;24.30;71.40;;;;;;4936524;29;20067;-74
2023/08/08 11:51:44;;;;;;;1.30;1.17;;;24.40;69.80;;;;;;4936953;29;20081;-73
2023/08/08 11:54:10;;;;;;;1.92;1.05;;;24.50;70.30;;;;;;4937125;29;20387;-74
2023/08/08 11:56:36;;;;;;;2.28;1.17;;;24.50;72.30;;;;;;4936655;29;20020;-74
2023/08/08 11:59:03;;;;;;;1.45;0.90;;;24.60;72.20;;;;;;4931027;29;20024;-74
2023/08/08 12:01:31;;;;;;;2.60;1.40;;;24.80;67.50;;;;;;4917700;29;20035;-74
2023/08/08 12:03:57;;;;;;;1.42;0.95;;;25.00;70.70;;;;;;4935973;29;20027;-73
2023/08/08 12:06:29;;;;;;;3.50;1.27;;;25.30;70.90;;;;;;4936558;29;20036;-74
2023/08/08 12:08:55;;;;;;;;;;;25.40;73.20;;;;;;4936678;29;20048;-74
2023/08/08 12:11:21;;;;;;;3.08;1.60;;;25.50;68.10;;;;;;4936550;29;19921;-74
2023/08/08 12:13:46;;;;;;;4.40;1.30;;;25.50;70.80;;;;;;4936538;29;20091;-73
2023/08/08 12:16:14;;;;;;;2.17;1.13;;;25.20;66.50;;;;;;4936550;29;20044;-73
2023/08/08 12:18:41;;;;;;;2.90;1.48;;;24.90;67.10;;;;;;4935828;29;20028;-73
2023/08/08 12:21:08;;;;;;;2.20;1.27;;;24.60;69.40;;;;;;4936465;29;20046;-74
2023/08/08 12:23:36;;;;;;;2.88;1.27;;;24.40;68.30;;;;;;4936582;29;20502;-74
2023/08/08 12:26:06;;;;;;;1.65;1.15;;;24.30;68.70;;;;;;4936328;29;20076;-74
2023/08/08 12:28:33;;;;;;;1.73;1.08;;;24.20;67.30;;;;;;4936284;29;20032;-74
2023/08/08 12:30:59;;;;;;;2.35;0.98;;;24.10;69.70;;;;;;4936329;29;20091;-75
2023/08/08 12:33:25;;;;;;;2.17;1.15;;;24.20;68.70;;;;;;4936012;29;20376;-74
2023/08/08 12:35:51;;;;;;;2.25;1.25;;;24.30;67.80;;;;;;4935943;29;20024;-74
2023/08/08 12:38:17;;;;;;;1.75;1.02;;;24.50;68.10;;;;;;4919029;29;20480;-74
2023/08/08 12:40:43;;;;;;;4.28;1.27;;;24.90;69.80;;;;;;4928203;29;20032;-75
2023/08/08 12:43:13;;;;;;;3.78;1.08;;;25.00;66.90;;;;;;4918415;29;20046;-75
2023/08/08 12:45:40;;;;;;;1.55;0.93;;;25.30;69.60;;;;;;4925684;29;20054;-74
2023/08/08 12:48:06;;;;;;;2.00;1.30;;;25.40;68.70;;;;;;4935423;29;20464;-74
2023/08/08 12:50:32;;;;;;;3.35;1.27;;;25.70;68.80;;;;;;4935780;29;20028;-73